sensor_id;sensor_type;location;lat;lon;timestamp;pressure;altitude;pressure_sealevel;temperature;humidity
54455;BME280;40364;52.270;10.546;2023-12-22T00:01:43;98188.13;;;16.13;47.14
54455;BME280;40364;52.270;10.546;2023-12-22T00:04:10;98185.00;;;18.23;43.34
54455;BME280;40364;52.270;10.546;2023-12-22T00:06:37;98196.47;;;17.77;45.04
54455;BME280;40364;52.270;10.546;2023-12-22T00:09:05;98195.19;;;17.53;45.17
54455;BME280;40364;52.270;10.546;2023-12-22T00:11:31;98192.22;;;18.24;43.02
54455;BME280;40364;52.270;10.546;2023-12-22T00:13:58;98200.53;;;16.61;45.84
54455;BME280;40364;52.270;10.546;2023-12-22T00:16:24;98194.59;;;18.00;43.42
54455;BME280;40364;52.270;10.546;2023-12-22T00:18:51;98198.19;;;18.26;42.21
54455;BME280;40364;52.270;10.546;2023-12-22T00:21:19;98193.91;;;17.83;43.17
54455;BME280;40364;52.270;10.546;2023-12-22T00:23:46;98189.41;;;18.24;42.82
54455;BME280;40364;52.270;10.546;2023-12-22T00:26:14;98190.53;;;19.30;42.02
54455;BME280;40364;52.270;10.546;2023-12-22T00:28:41;98198.31;;;17.71;42.68
54455;BME280;40364;52.270;10.546;2023-12-22T00:31:08;98207.09;;;18.24;41.86
54455;BME280;40364;52.270;10.546;2023-12-22T00:33:34;98200.09;;;17.65;43.06
54455;BME280;40364;52.270;10.546;2023-12-22T00:36:01;98202.91;;;17.78;41.73
54455;BME280;40364;52.270;10.546;2023-12-22T00:38:28;98194.28;;;16.86;42.25
54455;BME280;40364;52.270;10.546;2023-12-22T00:40:54;98216.22;;;16.45;42.92
54455;BME280;40364;52.270;10.546;2023-12-22T00:43:23;98190.75;;;17.27;42.84
54455;BME280;40364;52.270;10.546;2023-12-22T00:45:49;98184.09;;;16.92;41.84
54455;BME280;40364;52.270;10.546;2023-12-22T00:48:16;98209.47;;;17.46;41.79
54455;BME280;40364;52.270;10.546;2023-12-22T00:50:43;98189.06;;;18.34;40.32
54455;BME280;40364;52.270;10.546;2023-12-22T00:53:10;98211.03;;;18.27;40.64
54455;BME280;40364;52.270;10.546;2023-12-22T00:55:36;98211.16;;;17.98;40.35
54455;BME280;40364;52.270;10.546;2023-12-22T00:58:03;98201.06;;;17.59;40.79
54455;BME280;40364;52.270;10.546;2023-12-22T01:00:31;98205.94;;;18.60;40.27
54455;BME280;40364;52.270;10.546;2023-12-22T01:02:56;98206.50;;;18.42;39.37
54455;BME280;40364;52.270;10.546;2023-12-22T01:05:23;98198.50;;;19.97;37.17
54455;BME280;40364;52.270;10.546;2023-12-22T01:07:50;98209.00;;;17.89;39.61
54455;BME280;40364;52.270;10.546;2023-12-22T01:10:16;98202.34;;;18.08;39.77
54455;BME280;40364;52.270;10.546;2023-12-22T01:12:43;98208.66;;;17.87;39.79
54455;BME280;40364;52.270;10.546;2023-12-22T01:15:10;98213.84;;;17.89;40.24
54455;BME280;40364;52.270;10.546;2023-12-22T01:17:38;98211.00;;;18.65;40.40
54455;BME280;40364;52.270;10.546;2023-12-22T01:20:05;98211.72;;;17.51;40.94
54455;BME280;40364;52.270;10.546;2023-12-22T01:22:32;98234.78;;;16.88;41.17
54455;BME280;40364;52.270;10.546;2023-12-22T01:25:04;98237.28;;;18.11;39.95
54455;BME280;40364;52.270;10.546;2023-12-22T01:27:31;98244.41;;;17.61;40.80
54455;BME280;40364;52.270;10.546;2023-12-22T01:29:57;98235.84;;;18.32;39.29
54455;BME280;40364;52.270;10.546;2023-12-22T01:32:24;98256.94;;;16.86;40.80
54455;BME280;40364;52.270;10.546;2023-12-22T01:34:52;98235.47;;;18.42;38.22
54455;BME280;40364;52.270;10.546;2023-12-22T01:37:19;98240.72;;;17.64;39.74
54455;BME280;40364;52.270;10.546;2023-12-22T01:39:45;98247.00;;;16.98;40.30
54455;BME280;40364;52.270;10.546;2023-12-22T01:42:12;98265.25;;;16.08;41.89
54455;BME280;40364;52.270;10.546;2023-12-22T01:44:38;98266.59;;;17.01;41.51
54455;BME280;40364;52.270;10.546;2023-12-22T01:47:05;98267.56;;;17.40;40.78
54455;BME280;40364;52.270;10.546;2023-12-22T01:49:32;98274.34;;;17.97;40.45
54455;BME280;40364;52.270;10.546;2023-12-22T01:52:00;98261.75;;;18.65;39.50
54455;BME280;40364;52.270;10.546;2023-12-22T01:54:26;98256.69;;;16.80;41.33
54455;BME280;40364;52.270;10.546;2023-12-22T01:56:54;98265.75;;;17.46;41.66
54455;BME280;40364;52.270;10.546;2023-12-22T01:59:21;98257.47;;;16.32;42.73
54455;BME280;40364;52.270;10.546;2023-12-22T02:01:48;98271.81;;;16.70;41.87
54455;BME280;40364;52.270;10.546;2023-12-22T02:04:15;98294.34;;;15.39;42.88
54455;BME280;40364;52.270;10.546;2023-12-22T02:06:42;98276.03;;;16.10;42.28
54455;BME280;40364;52.270;10.546;2023-12-22T02:09:10;98270.31;;;18.23;40.41
54455;BME280;40364;52.270;10.546;2023-12-22T02:11:37;98284.53;;;19.17;38.19
54455;BME280;40364;52.270;10.546;2023-12-22T02:14:04;98274.25;;;19.24;36.56
54455;BME280;40364;52.270;10.546;2023-12-22T02:16:37;98268.72;;;18.47;38.45
54455;BME280;40364;52.270;10.546;2023-12-22T02:19:14;98273.91;;;17.57;40.36
54455;BME280;40364;52.270;10.546;2023-12-22T02:21:59;98274.91;;;20.55;36.10
54455;BME280;40364;52.270;10.546;2023-12-22T02:24:27;98259.25;;;18.41;39.56
54455;BME280;40364;52.270;10.546;2023-12-22T02:26:58;98261.13;;;18.95;39.53
54455;BME280;40364;52.270;10.546;2023-12-22T02:29:30;98256.31;;;18.58;40.78
54455;BME280;40364;52.270;10.546;2023-12-22T02:32:00;98260.59;;;18.49;41.57
54455;BME280;40364;52.270;10.546;2023-12-22T02:34:30;98262.19;;;19.10;40.96
54455;BME280;40364;52.270;10.546;2023-12-22T02:36:57;98243.72;;;16.02;45.01
54455;BME280;40364;52.270;10.546;2023-12-22T02:39:24;98250.06;;;16.55;43.99
54455;BME280;40364;52.270;10.546;2023-12-22T02:41:52;98269.31;;;17.63;44.00
54455;BME280;40364;52.270;10.546;2023-12-22T02:44:19;98283.47;;;16.85;43.49
54455;BME280;40364;52.270;10.546;2023-12-22T02:46:46;98256.97;;;16.01;45.19
54455;BME280;40364;52.270;10.546;2023-12-22T02:49:13;98249.47;;;15.39;46.86
54455;BME280;40364;52.270;10.546;2023-12-22T02:51:39;98243.97;;;14.69;48.50
54455;BME280;40364;52.270;10.546;2023-12-22T02:54:06;98238.22;;;16.14;45.57
54455;BME280;40364;52.270;10.546;2023-12-22T02:56:32;98227.09;;;15.55;45.92
54455;BME280;40364;52.270;10.546;2023-12-22T02:59:00;98235.72;;;17.97;43.28
54455;BME280;40364;52.270;10.546;2023-12-22T03:01:27;98232.47;;;15.06;47.17
54455;BME280;40364;52.270;10.546;2023-12-22T03:03:53;98262.00;;;16.10;45.61
54455;BME280;40364;52.270;10.546;2023-12-22T03:06:20;98243.06;;;16.14;46.17
54455;BME280;40364;52.270;10.546;2023-12-22T03:08:46;98245.78;;;16.17;45.71
54455;BME280;40364;52.270;10.546;2023-12-22T03:11:13;98260.22;;;14.58;47.92
54455;BME280;40364;52.270;10.546;2023-12-22T03:13:40;98247.75;;;15.25;46.86
54455;BME280;40364;52.270;10.546;2023-12-22T03:16:09;98244.00;;;15.52;46.98
54455;BME280;40364;52.270;10.546;2023-12-22T03:18:37;98240.53;;;16.36;45.37
54455;BME280;40364;52.270;10.546;2023-12-22T03:21:04;98238.75;;;15.34;45.66
54455;BME280;40364;52.270;10.546;2023-12-22T03:23:31;98221.16;;;13.97;48.10
54455;BME280;40364;52.270;10.546;2023-12-22T03:25:57;98237.16;;;14.93;46.87
54455;BME280;40364;52.270;10.546;2023-12-22T03:28:24;98240.94;;;14.83;46.66
54455;BME280;40364;52.270;10.546;2023-12-22T03:30:51;98232.72;;;13.99;48.92
54455;BME280;40364;52.270;10.546;2023-12-22T03:33:19;98246.81;;;15.12;46.94
54455;BME280;40364;52.270;10.546;2023-12-22T03:35:45;98241.50;;;14.24;47.36
54455;BME280;40364;52.270;10.546;2023-12-22T03:38:12;98242.69;;;16.12;44.47
54455;BME280;40364;52.270;10.546;2023-12-22T03:40:39;98233.00;;;15.41;45.43
54455;BME280;40364;52.270;10.546;2023-12-22T03:43:05;98221.00;;;16.94;41.67
54455;BME280;40364;52.270;10.546;2023-12-22T03:45:32;98221.50;;;17.46;41.48
54455;BME280;40364;52.270;10.546;2023-12-22T03:47:59;98209.19;;;16.70;42.37
54455;BME280;40364;52.270;10.546;2023-12-22T03:50:27;98201.69;;;17.37;43.32
54455;BME280;40364;52.270;10.546;2023-12-22T03:52:53;98233.56;;;17.47;41.89
54455;BME280;40364;52.270;10.546;2023-12-22T03:55:20;98221.91;;;15.73;44.49
54455;BME280;40364;52.270;10.546;2023-12-22T03:57:46;98221.28;;;15.66;44.21
54455;BME280;40364;52.270;10.546;2023-12-22T04:00:14;98225.88;;;16.77;43.70
54455;BME280;40364;52.270;10.546;2023-12-22T04:02:41;98240.75;;;17.06;42.56
54455;BME280;40364;52.270;10.546;2023-12-22T04:05:11;98226.16;;;16.95;43.28
54455;BME280;40364;52.270;10.546;2023-12-22T04:07:39;98217.53;;;16.73;43.63
54455;BME280;40364;52.270;10.546;2023-12-22T04:10:06;98222.09;;;16.35;44.25
54455;BME280;40364;52.270;10.546;2023-12-22T04:12:33;98215.72;;;14.83;45.21
54455;BME280;40364;52.270;10.546;2023-12-22T04:15:00;98216.78;;;16.04;43.27
54455;BME280;40364;52.270;10.546;2023-12-22T04:17:26;98224.69;;;15.57;44.09
54455;BME280;40364;52.270;10.546;2023-12-22T04:19:53;98219.38;;;16.47;42.29
54455;BME280;40364;52.270;10.546;2023-12-22T04:22:20;98208.75;;;15.50;44.05
54455;BME280;40364;52.270;10.546;2023-12-22T04:24:48;98203.13;;;16.71;43.28
54455;BME280;40364;52.270;10.546;2023-12-22T04:27:14;98216.28;;;16.42;41.86
54455;BME280;40364;52.270;10.546;2023-12-22T04:29:41;98211.03;;;15.75;43.30
54455;BME280;40364;52.270;10.546;2023-12-22T04:32:07;98209.88;;;15.57;43.35
54455;BME280;40364;52.270;10.546;2023-12-22T04:34:34;98239.09;;;17.22;40.71
54455;BME280;40364;52.270;10.546;2023-12-22T04:37:01;98214.31;;;15.14;43.78
54455;BME280;40364;52.270;10.546;2023-12-22T04:39:28;98233.50;;;14.96;44.68
54455;BME280;40364;52.270;10.546;2023-12-22T04:41:55;98239.31;;;15.05;44.73
54455;BME280;40364;52.270;10.546;2023-12-22T04:44:22;98234.00;;;15.70;43.53
54455;BME280;40364;52.270;10.546;2023-12-22T04:46:49;98214.66;;;15.76;42.94
54455;BME280;40364;52.270;10.546;2023-12-22T04:49:16;98243.22;;;16.88;41.11
54455;BME280;40364;52.270;10.546;2023-12-22T04:51:42;98239.56;;;15.90;42.62
54455;BME280;40364;52.270;10.546;2023-12-22T04:54:09;98254.44;;;15.71;44.17
54455;BME280;40364;52.270;10.546;2023-12-22T04:56:35;98274.19;;;13.77;69.31
54455;BME280;40364;52.270;10.546;2023-12-22T04:59:03;98260.44;;;14.16;61.38
54455;BME280;40364;52.270;10.546;2023-12-22T05:01:30;98248.66;;;14.99;54.80
54455;BME280;40364;52.270;10.546;2023-12-22T05:03:57;98251.41;;;15.42;54.16
54455;BME280;40364;52.270;10.546;2023-12-22T05:06:23;98270.97;;;14.82;54.46
54455;BME280;40364;52.270;10.546;2023-12-22T05:08:50;98277.97;;;14.47;53.93
54455;BME280;40364;52.270;10.546;2023-12-22T05:11:16;98272.63;;;15.23;54.20
54455;BME280;40364;52.270;10.546;2023-12-22T05:13:43;98276.38;;;13.93;56.51
54455;BME280;40364;52.270;10.546;2023-12-22T05:16:11;98272.66;;;15.63;52.96
54455;BME280;40364;52.270;10.546;2023-12-22T05:18:39;98279.84;;;15.64;51.72
54455;BME280;40364;52.270;10.546;2023-12-22T05:21:05;98281.72;;;15.70;52.28
54455;BME280;40364;52.270;10.546;2023-12-22T05:23:32;98268.91;;;15.89;50.66
54455;BME280;40364;52.270;10.546;2023-12-22T05:25:59;98269.94;;;15.59;50.21
54455;BME280;40364;52.270;10.546;2023-12-22T05:28:25;98280.00;;;16.29;47.87
54455;BME280;40364;52.270;10.546;2023-12-22T05:30:52;98272.22;;;15.64;47.94
54455;BME280;40364;52.270;10.546;2023-12-22T05:33:20;98269.25;;;17.79;46.80
54455;BME280;40364;52.270;10.546;2023-12-22T05:35:46;98263.00;;;16.20;47.87
54455;BME280;40364;52.270;10.546;2023-12-22T05:38:13;98271.56;;;15.76;48.39
54455;BME280;40364;52.270;10.546;2023-12-22T05:40:39;98270.13;;;16.89;46.64
54455;BME280;40364;52.270;10.546;2023-12-22T05:43:06;98290.44;;;15.56;47.08
54455;BME280;40364;52.270;10.546;2023-12-22T05:45:33;98289.22;;;18.10;43.73
54455;BME280;40364;52.270;10.546;2023-12-22T05:47:59;98292.63;;;17.34;42.81
54455;BME280;40364;52.270;10.546;2023-12-22T05:50:27;98277.34;;;17.77;46.00
54455;BME280;40364;52.270;10.546;2023-12-22T05:52:54;98274.09;;;17.78;43.92
54455;BME280;40364;52.270;10.546;2023-12-22T05:55:21;98270.53;;;18.79;41.04
54455;BME280;40364;52.270;10.546;2023-12-22T05:57:47;98287.50;;;16.35;45.57
54455;BME280;40364;52.270;10.546;2023-12-22T06:00:15;98296.47;;;18.24;42.97
54455;BME280;40364;52.270;10.546;2023-12-22T06:02:42;98288.75;;;15.39;47.97
54455;BME280;40364;52.270;10.546;2023-12-22T06:05:09;98301.69;;;17.26;43.46
54455;BME280;40364;52.270;10.546;2023-12-22T06:07:38;98313.34;;;17.11;44.14
54455;BME280;40364;52.270;10.546;2023-12-22T06:10:05;98305.28;;;17.42;44.73
54455;BME280;40364;52.270;10.546;2023-12-22T06:12:34;98264.06;;;14.67;48.74
54455;BME280;40364;52.270;10.546;2023-12-22T06:15:01;98273.75;;;16.21;46.62
54455;BME280;40364;52.270;10.546;2023-12-22T06:17:27;98275.69;;;17.22;45.41
54455;BME280;40364;52.270;10.546;2023-12-22T06:19:54;98282.69;;;17.59;43.72
54455;BME280;40364;52.270;10.546;2023-12-22T06:22:21;98285.03;;;16.37;45.49
54455;BME280;40364;52.270;10.546;2023-12-22T06:24:49;98285.41;;;19.49;43.07
54455;BME280;40364;52.270;10.546;2023-12-22T06:27:16;98275.16;;;18.10;44.28
54455;BME280;40364;52.270;10.546;2023-12-22T06:29:43;98311.47;;;18.59;43.73
54455;BME280;40364;52.270;10.546;2023-12-22T06:32:10;98322.97;;;18.26;43.44
54455;BME280;40364;52.270;10.546;2023-12-22T06:34:37;98339.69;;;18.04;41.46
54455;BME280;40364;52.270;10.546;2023-12-22T06:37:04;98335.94;;;16.75;43.89
54455;BME280;40364;52.270;10.546;2023-12-22T06:39:32;98337.59;;;17.05;45.21
54455;BME280;40364;52.270;10.546;2023-12-22T06:42:02;98326.81;;;17.33;45.04
54455;BME280;40364;52.270;10.546;2023-12-22T06:44:31;98335.56;;;15.85;47.45
54455;BME280;40364;52.270;10.546;2023-12-22T06:46:58;98333.44;;;16.61;44.42
54455;BME280;40364;52.270;10.546;2023-12-22T06:49:24;98330.97;;;16.63;45.13
54455;BME280;40364;52.270;10.546;2023-12-22T06:51:51;98337.13;;;16.58;45.69
54455;BME280;40364;52.270;10.546;2023-12-22T06:54:18;98323.09;;;16.91;45.23
54455;BME280;40364;52.270;10.546;2023-12-22T06:56:44;98318.59;;;17.83;40.51
54455;BME280;40364;52.270;10.546;2023-12-22T06:59:12;98350.50;;;17.93;43.84
54455;BME280;40364;52.270;10.546;2023-12-22T07:01:39;98324.41;;;15.81;45.22
54455;BME280;40364;52.270;10.546;2023-12-22T07:04:05;98353.81;;;15.73;42.89
54455;BME280;40364;52.270;10.546;2023-12-22T07:06:34;98320.66;;;17.38;43.33
54455;BME280;40364;52.270;10.546;2023-12-22T07:09:32;98380.09;;;18.27;40.32
54455;BME280;40364;52.270;10.546;2023-12-22T07:11:58;98342.97;;;17.00;41.24
54455;BME280;40364;52.270;10.546;2023-12-22T07:14:26;98383.09;;;17.33;41.41
54455;BME280;40364;52.270;10.546;2023-12-22T07:16:53;98382.00;;;16.45;41.55
54455;BME280;40364;52.270;10.546;2023-12-22T07:19:19;98378.47;;;16.41;40.36
54455;BME280;40364;52.270;10.546;2023-12-22T07:21:46;98403.38;;;16.39;40.74
54455;BME280;40364;52.270;10.546;2023-12-22T07:24:13;98385.41;;;17.05;40.41
54455;BME280;40364;52.270;10.546;2023-12-22T07:26:40;98403.34;;;16.79;40.23
54455;BME280;40364;52.270;10.546;2023-12-22T07:29:06;98399.88;;;15.76;41.29
54455;BME280;40364;52.270;10.546;2023-12-22T07:31:35;98391.44;;;17.69;39.51
54455;BME280;40364;52.270;10.546;2023-12-22T07:34:01;98390.03;;;17.90;37.30
54455;BME280;40364;52.270;10.546;2023-12-22T07:36:28;98398.56;;;16.76;40.08
54455;BME280;40364;52.270;10.546;2023-12-22T07:38:55;98416.09;;;18.06;38.14
54455;BME280;40364;52.270;10.546;2023-12-22T07:41:22;98415.97;;;16.87;39.83
54455;BME280;40364;52.270;10.546;2023-12-22T07:43:49;98434.13;;;16.66;39.52
54455;BME280;40364;52.270;10.546;2023-12-22T07:46:18;98462.16;;;20.50;35.82
54455;BME280;40364;52.270;10.546;2023-12-22T07:48:47;98449.22;;;17.08;41.27
54455;BME280;40364;52.270;10.546;2023-12-22T07:51:14;98456.25;;;17.00;39.70
54455;BME280;40364;52.270;10.546;2023-12-22T07:53:40;98471.94;;;17.66;38.98
54455;BME280;40364;52.270;10.546;2023-12-22T07:56:07;98495.66;;;15.04;43.67
54455;BME280;40364;52.270;10.546;2023-12-22T07:58:35;98449.88;;;15.61;42.60
54455;BME280;40364;52.270;10.546;2023-12-22T08:01:03;98461.81;;;16.48;41.37
54455;BME280;40364;52.270;10.546;2023-12-22T08:03:30;98444.09;;;16.31;40.94
54455;BME280;40364;52.270;10.546;2023-12-22T08:05:59;98454.84;;;18.60;40.36
54455;BME280;40364;52.270;10.546;2023-12-22T08:08:25;98447.31;;;15.70;41.42
54455;BME280;40364;52.270;10.546;2023-12-22T08:10:52;98444.03;;;18.42;37.74
54455;BME280;40364;52.270;10.546;2023-12-22T08:13:19;98445.34;;;17.02;39.48
54455;BME280;40364;52.270;10.546;2023-12-22T08:15:45;98463.75;;;16.31;42.09
54455;BME280;40364;52.270;10.546;2023-12-22T08:18:12;98475.53;;;16.62;40.88
54455;BME280;40364;52.270;10.546;2023-12-22T08:20:39;98486.75;;;17.50;41.39
54455;BME280;40364;52.270;10.546;2023-12-22T08:23:07;98492.53;;;16.95;43.75
54455;BME280;40364;52.270;10.546;2023-12-22T08:25:34;98518.00;;;17.56;42.00
54455;BME280;40364;52.270;10.546;2023-12-22T08:28:00;98520.78;;;15.89;45.49
54455;BME280;40364;52.270;10.546;2023-12-22T08:30:27;98509.59;;;16.48;45.35
54455;BME280;40364;52.270;10.546;2023-12-22T08:32:54;98504.09;;;16.21;46.39
54455;BME280;40364;52.270;10.546;2023-12-22T08:35:20;98494.78;;;16.24;45.84
54455;BME280;40364;52.270;10.546;2023-12-22T08:37:47;98497.56;;;17.03;43.40
54455;BME280;40364;52.270;10.546;2023-12-22T08:40:15;98497.88;;;18.19;43.93
54455;BME280;40364;52.270;10.546;2023-12-22T08:42:42;98503.94;;;17.40;44.13
54455;BME280;40364;52.270;10.546;2023-12-22T08:45:09;98502.56;;;16.56;44.98
54455;BME280;40364;52.270;10.546;2023-12-22T08:47:36;98508.16;;;17.64;43.35
54455;BME280;40364;52.270;10.546;2023-12-22T08:50:03;98516.13;;;15.78;46.33
54455;BME280;40364;52.270;10.546;2023-12-22T08:52:33;98520.31;;;16.33;45.79
54455;BME280;40364;52.270;10.546;2023-12-22T08:55:00;98528.13;;;17.01;43.13
54455;BME280;40364;52.270;10.546;2023-12-22T08:57:29;98530.66;;;17.64;43.81
54455;BME280;40364;52.270;10.546;2023-12-22T08:59:56;98555.50;;;14.64;47.59
54455;BME280;40364;52.270;10.546;2023-12-22T09:02:22;98541.28;;;16.48;44.66
54455;BME280;40364;52.270;10.546;2023-12-22T09:04:51;98534.22;;;17.16;43.06
54455;BME280;40364;52.270;10.546;2023-12-22T09:07:18;98541.06;;;16.99;43.30
54455;BME280;40364;52.270;10.546;2023-12-22T09:09:47;98532.16;;;17.52;43.67
54455;BME280;40364;52.270;10.546;2023-12-22T09:12:14;98528.72;;;17.45;42.66
54455;BME280;40364;52.270;10.546;2023-12-22T09:14:43;98536.41;;;18.80;41.34
54455;BME280;40364;52.270;10.546;2023-12-22T09:17:09;98530.63;;;17.15;43.66
54455;BME280;40364;52.270;10.546;2023-12-22T09:19:36;98533.19;;;16.11;44.14
54455;BME280;40364;52.270;10.546;2023-12-22T09:22:04;98529.56;;;16.73;43.40
54455;BME280;40364;52.270;10.546;2023-12-22T09:24:30;98536.94;;;17.20;44.11
54455;BME280;40364;52.270;10.546;2023-12-22T09:26:57;98516.19;;;16.58;45.07
54455;BME280;40364;52.270;10.546;2023-12-22T09:29:28;98534.25;;;16.80;43.24
54455;BME280;40364;52.270;10.546;2023-12-22T09:31:56;98534.13;;;16.83;45.55
54455;BME280;40364;52.270;10.546;2023-12-22T09:34:25;98538.06;;;16.50;44.04
54455;BME280;40364;52.270;10.546;2023-12-22T09:36:52;98550.22;;;16.43;43.58
54455;BME280;40364;52.270;10.546;2023-12-22T09:39:19;98540.59;;;16.21;44.20
54455;BME280;40364;52.270;10.546;2023-12-22T09:41:48;98541.00;;;18.32;41.72
54455;BME280;40364;52.270;10.546;2023-12-22T09:44:18;98533.97;;;19.07;41.01
54455;BME280;40364;52.270;10.546;2023-12-22T09:46:46;98527.72;;;16.83;43.18
54455;BME280;40364;52.270;10.546;2023-12-22T09:49:15;98534.56;;;17.18;42.54
54455;BME280;40364;52.270;10.546;2023-12-22T09:51:44;98534.84;;;18.05;42.67
54455;BME280;40364;52.270;10.546;2023-12-22T09:54:11;98549.19;;;17.29;43.60
54455;BME280;40364;52.270;10.546;2023-12-22T09:56:40;98540.56;;;18.17;42.73
54455;BME280;40364;52.270;10.546;2023-12-22T09:59:10;98613.78;;;18.50;43.42
54455;BME280;40364;52.270;10.546;2023-12-22T10:01:39;98573.28;;;17.99;43.71
54455;BME280;40364;52.270;10.546;2023-12-22T10:04:06;98558.19;;;18.22;44.48
54455;BME280;40364;52.270;10.546;2023-12-22T10:06:34;98559.97;;;19.40;41.02
54455;BME280;40364;52.270;10.546;2023-12-22T10:09:02;98560.34;;;20.49;39.56
54455;BME280;40364;52.270;10.546;2023-12-22T10:11:32;98556.09;;;19.09;41.50
54455;BME280;40364;52.270;10.546;2023-12-22T10:13:59;98538.72;;;21.79;37.86
54455;BME280;40364;52.270;10.546;2023-12-22T10:16:27;98535.06;;;22.19;36.66
54455;BME280;40364;52.270;10.546;2023-12-22T10:18:54;98540.16;;;21.13;37.69
54455;BME280;40364;52.270;10.546;2023-12-22T10:21:21;98515.88;;;21.25;36.80
54455;BME280;40364;52.270;10.546;2023-12-22T10:23:49;98526.56;;;20.33;38.39
54455;BME280;40364;52.270;10.546;2023-12-22T10:26:16;98520.09;;;19.38;39.24
54455;BME280;40364;52.270;10.546;2023-12-22T10:28:43;98507.84;;;18.36;39.91
54455;BME280;40364;52.270;10.546;2023-12-22T10:31:09;98512.75;;;19.15;39.25
54455;BME280;40364;52.270;10.546;2023-12-22T10:33:36;98522.28;;;18.67;38.67
54455;BME280;40364;52.270;10.546;2023-12-22T10:36:03;98539.91;;;17.12;40.52
54455;BME280;40364;52.270;10.546;2023-12-22T10:38:32;98541.38;;;20.03;38.21
54455;BME280;40364;52.270;10.546;2023-12-22T10:41:00;98539.63;;;19.83;37.49
54455;BME280;40364;52.270;10.546;2023-12-22T10:43:27;98521.16;;;17.91;39.34
54455;BME280;40364;52.270;10.546;2023-12-22T10:45:54;98544.19;;;20.15;38.39
54455;BME280;40364;52.270;10.546;2023-12-22T10:48:21;98524.25;;;18.54;39.86
54455;BME280;40364;52.270;10.546;2023-12-22T10:50:48;98547.09;;;16.97;40.95
54455;BME280;40364;52.270;10.546;2023-12-22T10:53:15;98558.03;;;17.64;40.57
54455;BME280;40364;52.270;10.546;2023-12-22T10:55:41;98581.56;;;16.81;40.04
54455;BME280;40364;52.270;10.546;2023-12-22T10:58:10;98569.41;;;17.93;41.74
54455;BME280;40364;52.270;10.546;2023-12-22T11:00:38;98550.88;;;18.82;40.38
54455;BME280;40364;52.270;10.546;2023-12-22T11:03:08;98553.13;;;18.00;40.51
54455;BME280;40364;52.270;10.546;2023-12-22T11:05:44;98566.03;;;19.90;40.28
54455;BME280;40364;52.270;10.546;2023-12-22T11:08:12;98581.06;;;16.87;47.64
54455;BME280;40364;52.270;10.546;2023-12-22T11:10:41;98560.72;;;15.96;65.03
54455;BME280;40364;52.270;10.546;2023-12-22T11:13:10;98553.81;;;19.93;71.49
54455;BME280;40364;52.270;10.546;2023-12-22T11:15:39;98534.75;;;18.54;47.83
54455;BME280;40364;52.270;10.546;2023-12-22T11:18:07;98542.22;;;20.25;45.19
54455;BME280;40364;52.270;10.546;2023-12-22T11:20:35;98541.72;;;17.23;47.67
54455;BME280;40364;52.270;10.546;2023-12-22T11:23:04;98552.53;;;19.59;46.30
54455;BME280;40364;52.270;10.546;2023-12-22T11:25:31;98546.59;;;17.02;50.37
54455;BME280;40364;52.270;10.546;2023-12-22T11:27:59;98537.34;;;20.26;44.88
54455;BME280;40364;52.270;10.546;2023-12-22T11:30:29;98558.94;;;19.22;45.86
54455;BME280;40364;52.270;10.546;2023-12-22T11:32:56;98566.81;;;19.01;44.35
54455;BME280;40364;52.270;10.546;2023-12-22T11:35:23;98558.25;;;21.06;41.34
54455;BME280;40364;52.270;10.546;2023-12-22T11:37:50;98547.94;;;20.00;42.95
54455;BME280;40364;52.270;10.546;2023-12-22T11:40:18;98560.16;;;20.66;40.85
54455;BME280;40364;52.270;10.546;2023-12-22T11:42:47;98552.28;;;21.35;40.87
54455;BME280;40364;52.270;10.546;2023-12-22T11:45:17;98540.91;;;18.65;44.37
54455;BME280;40364;52.270;10.546;2023-12-22T11:47:45;98532.47;;;18.20;48.51
54455;BME280;40364;52.270;10.546;2023-12-22T11:50:28;98540.16;;;17.54;48.77
54455;BME280;40364;52.270;10.546;2023-12-22T11:52:55;98524.47;;;17.04;49.64
54455;BME280;40364;52.270;10.546;2023-12-22T11:58:35;98541.63;;;19.96;44.48
54455;BME280;40364;52.270;10.546;2023-12-22T12:01:03;98532.47;;;18.20;47.09
54455;BME280;40364;52.270;10.546;2023-12-22T12:03:35;98542.22;;;19.14;46.91
54455;BME280;40364;52.270;10.546;2023-12-22T12:06:16;98537.97;;;17.94;46.73
54455;BME280;40364;52.270;10.546;2023-12-22T12:08:43;98539.97;;;17.29;48.15
54455;BME280;40364;52.270;10.546;2023-12-22T12:11:10;98539.25;;;18.22;47.56
54455;BME280;40364;52.270;10.546;2023-12-22T12:13:42;98542.84;;;18.23;49.01
54455;BME280;40364;52.270;10.546;2023-12-22T12:16:08;98542.34;;;16.94;48.92
54455;BME280;40364;52.270;10.546;2023-12-22T12:18:36;98547.94;;;18.28;49.64
54455;BME280;40364;52.270;10.546;2023-12-22T12:21:06;98547.75;;;19.18;46.42
54455;BME280;40364;52.270;10.546;2023-12-22T12:23:33;98547.22;;;17.78;47.36
54455;BME280;40364;52.270;10.546;2023-12-22T12:26:00;98534.75;;;18.54;46.74
54455;BME280;40364;52.270;10.546;2023-12-22T12:28:29;98530.84;;;19.56;44.19
54455;BME280;40364;52.270;10.546;2023-12-22T12:30:59;98538.22;;;20.01;44.47
54455;BME280;40364;52.270;10.546;2023-12-22T12:33:27;98536.06;;;20.83;42.28
54455;BME280;40364;52.270;10.546;2023-12-22T12:35:57;98536.00;;;20.52;42.74
54455;BME280;40364;52.270;10.546;2023-12-22T12:38:36;98527.44;;;19.10;45.27
54455;BME280;40364;52.270;10.546;2023-12-22T12:41:06;98524.94;;;19.38;44.41
54455;BME280;40364;52.270;10.546;2023-12-22T12:43:36;98527.75;;;20.23;43.90
54455;BME280;40364;52.270;10.546;2023-12-22T12:46:10;98528.72;;;20.64;42.46
54455;BME280;40364;52.270;10.546;2023-12-22T12:48:43;98528.69;;;21.07;40.89
54455;BME280;40364;52.270;10.546;2023-12-22T12:51:11;98523.72;;;21.21;41.36
54455;BME280;40364;52.270;10.546;2023-12-22T12:53:38;98515.25;;;20.46;41.36
54455;BME280;40364;52.270;10.546;2023-12-22T12:56:05;98514.28;;;20.93;41.16